Terminal Aerodrome Forecast
Issued by NWS Wilmington, OH

Current Version | Previous Version | Text Only | Print | Product List | Glossary Off
Versions: 1 2 3 4 5 6 7 8 9 10 11 12 13 14 15 16 17 18 19 20

000
FTUS41 KILN 041730
TAFCMH
TAF
KCMH 041730Z 0418/0518 12010KT P6SM FEW050 OVC100
     FM042000 12007KT P6SM VCSH OVC050
     FM042300 12007KT 4SM -RA BR OVC025
     FM050100 14006KT 4SM -RA BR OVC012
     FM050300 16006KT 4SM -RASN BR OVC006
     FM050500 28010KT P6SM OVC006
     FM051400 25004KT P6SM BKN010=

USA.gov is the U.S. government's official web portal to all federal, state and local government web resources and services.